createdAt,value
2022-10-20T00:00:34.117Z,14.63
2022-10-20T00:03:22.029Z,15.77
2022-10-20T00:06:10.448Z,15.03
2022-10-20T00:08:59.485Z,15.80
2022-10-20T00:11:46.933Z,15.57
2022-10-20T00:14:34.873Z,16.80
2022-10-20T00:17:22.363Z,15.70
2022-10-20T00:20:10.660Z,16.87
2022-10-20T00:22:58.081Z,16.50
2022-10-20T00:25:46.005Z,16.53
2022-10-20T00:28:34.059Z,15.77
2022-10-20T00:31:23.227Z,16.90
2022-10-20T00:34:11.449Z,17.07
2022-10-20T00:36:59.281Z,15.85
2022-10-20T00:39:46.744Z,16.90
2022-10-20T00:42:34.872Z,16.53
2022-10-20T00:45:23.084Z,17.40
2022-10-20T00:48:16.309Z,17.87
2022-10-20T00:51:03.732Z,18.23
2022-10-20T00:53:53.840Z,18.57
2022-10-20T00:56:43.178Z,18.60
2022-10-20T00:59:32.840Z,16.47
2022-10-20T01:02:20.760Z,18.10
2022-10-20T01:05:09.342Z,18.47
2022-10-20T01:07:56.598Z,19.63
2022-10-20T01:10:56.798Z,18.20
2022-10-20T01:13:49.519Z,18.17
2022-10-20T01:16:56.010Z,18.10
2022-10-20T01:20:02.099Z,18.80
2022-10-20T01:22:49.874Z,18.73
2022-10-20T01:25:49.687Z,18.20
2022-10-20T01:28:51.206Z,16.37
2022-10-20T01:31:45.224Z,16.47
2022-10-20T01:35:02.552Z,15.70
2022-10-20T01:38:02.371Z,17.30
2022-10-20T01:40:53.151Z,17.40
2022-10-20T01:43:42.697Z,14.97
2022-10-20T01:46:30.655Z,16.17
2022-10-20T01:49:18.107Z,17.43
2022-10-20T01:52:05.838Z,15.57
2022-10-20T01:54:53.220Z,15.23
2022-10-20T01:57:52.859Z,16.40
2022-10-20T02:00:40.457Z,17.93
2022-10-20T02:03:41.111Z,17.67
2022-10-20T02:06:43.458Z,18.50
2022-10-20T02:09:31.143Z,16.70
2022-10-20T02:12:22.479Z,16.63
2022-10-20T02:15:12.165Z,15.83
2022-10-20T02:18:06.305Z,17.23
2022-10-20T02:20:55.629Z,17.30
2022-10-20T02:23:44.805Z,15.00
2022-10-20T02:26:33.150Z,17.10
2022-10-20T02:29:26.379Z,18.60
2022-10-20T02:32:14.536Z,16.80
2022-10-20T02:35:06.757Z,17.77
2022-10-20T02:37:54.861Z,17.23
2022-10-20T02:40:42.036Z,16.80
2022-10-20T02:43:30.911Z,18.07
2022-10-20T02:46:18.325Z,15.73
2022-10-20T02:49:06.078Z,16.80
2022-10-20T02:51:53.951Z,17.90
2022-10-20T02:54:42.099Z,19.50
2022-10-20T02:57:29.334Z,18.30
2022-10-20T03:00:16.760Z,18.60
2022-10-20T03:03:04.291Z,18.13
2022-10-20T03:05:52.114Z,18.70
2022-10-20T03:08:39.392Z,17.60
2022-10-20T03:11:27.258Z,17.27
2022-10-20T03:14:14.644Z,16.90
2022-10-20T03:17:02.524Z,17.30
2022-10-20T03:19:49.779Z,16.57
2022-10-20T03:22:37.622Z,17.60
2022-10-20T03:25:25.445Z,17.53
2022-10-20T03:28:12.623Z,18.50
2022-10-20T03:31:00.589Z,17.77
2022-10-20T03:33:47.818Z,16.80
2022-10-20T03:36:36.364Z,16.37
2022-10-20T03:39:23.563Z,16.80
2022-10-20T03:42:11.396Z,16.87
2022-10-20T03:44:58.578Z,17.13
2022-10-20T03:47:46.000Z,17.67
2022-10-20T03:50:33.191Z,18.50
2022-10-20T03:53:20.806Z,17.43
2022-10-20T03:56:09.609Z,16.47
2022-10-20T03:58:57.057Z,18.50
2022-10-20T04:01:46.507Z,15.60
2022-10-20T04:04:33.899Z,16.33
2022-10-20T04:07:21.115Z,17.27
2022-10-20T04:10:09.163Z,17.07
2022-10-20T04:13:00.135Z,17.03
2022-10-20T04:15:48.072Z,16.33
2022-10-20T04:18:35.481Z,16.83
2022-10-20T04:21:23.459Z,16.73
2022-10-20T04:24:10.653Z,16.13
2022-10-20T04:26:58.604Z,16.20
2022-10-20T04:29:47.270Z,17.23
2022-10-20T04:32:35.124Z,15.27
2022-10-20T04:35:22.509Z,16.80
2022-10-20T04:38:10.417Z,16.03
2022-10-20T04:41:00.426Z,16.97
2022-10-20T04:43:52.585Z,16.47
2022-10-20T04:46:39.992Z,14.57
2022-10-20T04:49:27.900Z,16.37
2022-10-20T04:52:15.378Z,16.73
2022-10-20T04:55:03.235Z,15.87
2022-10-20T04:57:50.482Z,14.30
2022-10-20T05:00:38.443Z,14.37
2022-10-20T05:03:25.871Z,15.20
2022-10-20T05:06:21.352Z,16.10
2022-10-20T05:09:08.884Z,15.60
2022-10-20T05:11:56.685Z,14.43
2022-10-20T05:14:44.590Z,14.63
2022-10-20T05:17:32.518Z,14.87
2022-10-20T05:20:20.400Z,14.83
2022-10-20T05:23:08.256Z,14.60
2022-10-20T05:25:55.707Z,14.77
2022-10-20T05:28:47.185Z,13.77
2022-10-20T05:31:39.290Z,15.23
2022-10-20T05:34:27.200Z,13.67
2022-10-20T05:37:14.614Z,14.07
2022-10-20T05:40:03.965Z,13.70
2022-10-20T05:42:51.742Z,15.63
2022-10-20T05:45:39.861Z,14.93
2022-10-20T05:48:27.772Z,15.83
2022-10-20T05:51:16.925Z,14.70
2022-10-20T05:54:04.987Z,14.27
2022-10-20T05:56:52.445Z,15.03
2022-10-20T05:59:40.329Z,14.73
2022-10-20T06:02:27.583Z,14.10
2022-10-20T06:05:15.450Z,13.90
2022-10-20T06:08:03.367Z,13.60
2022-10-20T06:10:50.764Z,14.67
2022-10-20T06:13:38.906Z,14.67
2022-10-20T06:16:26.968Z,14.57
2022-10-20T06:19:14.861Z,13.30
2022-10-20T06:22:05.533Z,14.70
2022-10-20T06:24:54.595Z,13.73
2022-10-20T06:27:42.371Z,12.80
2022-10-20T06:30:30.886Z,12.93
2022-10-20T06:33:18.390Z,13.83
2022-10-20T06:36:06.072Z,14.13
2022-10-20T06:38:57.256Z,14.03
2022-10-20T06:41:47.566Z,13.90
2022-10-20T06:44:34.979Z,12.47
2022-10-20T06:47:22.239Z,12.37
2022-10-20T06:50:09.726Z,12.83
2022-10-20T06:52:57.590Z,13.97
2022-10-20T06:55:45.070Z,13.63
2022-10-20T06:58:33.102Z,13.93
2022-10-20T07:01:23.856Z,14.97
2022-10-20T07:04:14.718Z,14.47
2022-10-20T07:07:02.584Z,14.03
2022-10-20T07:09:50.045Z,15.50
2022-10-20T07:12:37.742Z,13.83
2022-10-20T07:15:25.502Z,13.20
2022-10-20T07:18:12.922Z,14.13
2022-10-20T07:21:02.231Z,14.90
2022-10-20T07:23:50.364Z,15.30
2022-10-20T07:26:39.635Z,13.53
2022-10-20T07:29:27.647Z,11.53
2022-10-20T07:32:15.546Z,11.83
2022-10-20T07:35:03.300Z,10.50
2022-10-20T07:37:51.418Z,10.47
2022-10-20T07:40:39.562Z,9.60
2022-10-20T07:43:36.646Z,9.40
2022-10-20T07:46:24.533Z,9.17
2022-10-20T07:52:20.621Z,10.23
2022-10-20T07:55:23.883Z,10.30
2022-10-20T07:58:15.495Z,9.40
2022-10-20T08:01:02.928Z,9.80
2022-10-20T08:03:50.923Z,9.37
2022-10-20T08:06:39.145Z,9.90
2022-10-20T08:09:27.972Z,8.80
2022-10-20T08:12:15.838Z,9.37
2022-10-20T08:15:03.906Z,9.33
2022-10-20T08:17:51.384Z,8.33
2022-10-20T08:20:39.321Z,8.83
2022-10-20T08:23:27.211Z,9.03
2022-10-20T08:26:18.015Z,8.17
2022-10-20T08:29:05.999Z,9.40
2022-10-20T08:31:53.903Z,9.67
2022-10-20T08:34:41.368Z,8.23
2022-10-20T08:37:31.024Z,8.37
2022-10-20T08:40:21.098Z,9.30
2022-10-20T08:43:14.287Z,8.63
2022-10-20T08:46:01.832Z,8.80
2022-10-20T08:51:59.401Z,8.13
2022-10-20T08:54:48.768Z,7.40
2022-10-20T08:57:37.149Z,7.90
2022-10-20T09:00:25.632Z,8.65
2022-10-20T09:03:24.370Z,8.80
2022-10-20T09:06:16.620Z,8.10
2022-10-20T09:09:04.625Z,9.77
2022-10-20T09:11:52.255Z,8.53
2022-10-20T09:14:39.724Z,8.32
2022-10-20T09:17:27.796Z,9.38
2022-10-20T09:20:22.374Z,8.90
2022-10-20T09:23:28.492Z,9.20
2022-10-20T09:26:32.118Z,8.63
2022-10-20T09:29:39.182Z,8.30
2022-10-20T09:32:46.612Z,7.18
2022-10-20T09:35:37.069Z,8.45
2022-10-20T09:38:29.492Z,7.95
2022-10-20T09:41:31.728Z,7.60
2022-10-20T09:44:26.203Z,7.25
2022-10-20T09:47:15.646Z,7.72
2022-10-20T09:50:05.420Z,7.30
2022-10-20T09:52:53.171Z,7.40
2022-10-20T09:55:46.336Z,7.28
2022-10-20T09:58:37.762Z,6.55
2022-10-20T10:01:25.774Z,7.28
2022-10-20T10:04:30.167Z,6.75
2022-10-20T10:07:27.316Z,7.30
2022-10-20T10:10:20.331Z,6.47
2022-10-20T10:13:23.969Z,6.60
2022-10-20T10:16:17.457Z,6.38
2022-10-20T10:19:06.218Z,6.57
2022-10-20T10:21:58.859Z,6.53
2022-10-20T10:24:47.556Z,5.35
2022-10-20T10:27:36.899Z,6.22
2022-10-20T10:30:33.290Z,5.75
2022-10-20T10:33:28.102Z,5.68
2022-10-20T10:36:29.485Z,5.32
2022-10-20T10:39:17.788Z,5.30
2022-10-20T10:42:09.186Z,5.72
2022-10-20T10:45:09.064Z,5.45
2022-10-20T10:47:59.948Z,5.63
2022-10-20T10:50:47.415Z,5.03
2022-10-20T10:53:50.660Z,5.80
2022-10-20T10:56:48.130Z,5.28
2022-10-20T10:59:42.266Z,5.07
2022-10-20T11:02:30.191Z,4.30
2022-10-20T11:05:36.537Z,5.35
2022-10-20T11:08:24.420Z,5.30
2022-10-20T11:11:15.118Z,4.82
2022-10-20T11:14:20.927Z,4.85
2022-10-20T11:17:38.365Z,5.70
2022-10-20T11:20:44.852Z,5.10
2022-10-20T11:26:29.108Z,5.03
2022-10-20T11:29:25.086Z,4.90
2022-10-20T11:32:25.623Z,4.78
2022-10-20T11:35:13.452Z,4.28
2022-10-20T11:38:13.096Z,5.20
2022-10-20T11:41:00.617Z,5.10
2022-10-20T11:43:51.290Z,4.35
2022-10-20T11:46:47.127Z,4.47
2022-10-20T11:49:35.473Z,4.60
2022-10-20T11:52:47.418Z,4.88
2022-10-20T11:55:58.630Z,5.35
2022-10-20T11:58:58.556Z,4.28
2022-10-20T12:01:59.327Z,5.50
2022-10-20T12:05:05.418Z,4.30
2022-10-20T12:08:30.848Z,4.80
2022-10-20T12:11:37.659Z,5.47
2022-10-20T12:14:25.778Z,4.47
2022-10-20T12:17:29.117Z,4.18
2022-10-20T12:20:22.649Z,4.28
2022-10-20T12:23:30.554Z,3.95
2022-10-20T12:26:30.341Z,3.67
2022-10-20T12:29:33.774Z,4.40
2022-10-20T12:32:24.764Z,4.22
2022-10-20T12:35:12.656Z,4.10
2022-10-20T12:38:05.874Z,3.88
2022-10-20T12:40:57.803Z,3.60
2022-10-20T12:43:53.434Z,5.15
2022-10-20T12:46:43.832Z,4.80
2022-10-20T12:49:34.047Z,4.13
2022-10-20T12:52:23.049Z,4.25
2022-10-20T12:55:23.513Z,4.03
2022-10-20T12:58:20.342Z,3.63
2022-10-20T13:01:12.243Z,3.70
2022-10-20T13:04:00.121Z,3.83
2022-10-20T13:06:48.319Z,3.15
2022-10-20T13:09:54.739Z,3.58
2022-10-20T13:12:42.543Z,3.38
2022-10-20T13:15:36.307Z,3.90
2022-10-20T13:18:28.168Z,3.38
2022-10-20T13:21:26.548Z,4.63
2022-10-20T13:24:19.451Z,2.83
2022-10-20T13:27:09.859Z,3.63
2022-10-20T13:29:57.560Z,3.33
2022-10-20T13:36:38.732Z,3.50
2022-10-20T13:39:38.833Z,3.47
2022-10-20T13:42:45.032Z,3.38
2022-10-20T13:45:47.812Z,3.55
2022-10-20T13:48:35.488Z,3.72
2022-10-20T13:51:26.262Z,3.85
2022-10-20T13:54:19.926Z,3.83
2022-10-20T13:57:07.566Z,3.58
2022-10-20T13:59:59.754Z,4.05
2022-10-20T14:03:04.437Z,4.70
2022-10-20T14:05:54.487Z,3.47
2022-10-20T14:08:44.914Z,3.80
2022-10-20T14:11:33.119Z,4.22
2022-10-20T14:14:25.555Z,4.53
2022-10-20T14:17:19.103Z,4.00
2022-10-20T14:20:25.443Z,4.35
2022-10-20T14:23:12.730Z,3.90
2022-10-20T14:26:04.275Z,3.70
2022-10-20T14:28:52.049Z,4.25
2022-10-20T14:31:40.095Z,3.90
2022-10-20T14:34:33.965Z,4.50
2022-10-20T14:37:41.040Z,4.22
2022-10-20T14:40:30.641Z,4.38
2022-10-20T14:43:20.607Z,4.45
2022-10-20T14:46:12.389Z,4.00
2022-10-20T14:49:01.055Z,4.00
2022-10-20T14:51:56.742Z,4.05
2022-10-20T14:54:44.818Z,4.82
2022-10-20T14:57:38.900Z,4.25
2022-10-20T15:00:28.702Z,4.40
2022-10-20T15:03:17.058Z,4.65
2022-10-20T15:06:04.724Z,4.13
2022-10-20T15:08:53.513Z,3.70
2022-10-20T15:11:41.392Z,4.50
2022-10-20T15:14:29.016Z,4.80
2022-10-20T15:17:35.250Z,5.45
2022-10-20T15:20:34.807Z,4.05
2022-10-20T15:23:23.309Z,4.78
2022-10-20T15:26:12.464Z,5.53
2022-10-20T15:28:59.957Z,5.50
2022-10-20T15:31:47.276Z,5.07
2022-10-20T15:34:34.748Z,5.20
2022-10-20T15:37:22.507Z,5.15
2022-10-20T15:40:10.294Z,5.75
2022-10-20T15:42:58.226Z,5.60
2022-10-20T15:45:53.957Z,5.20
2022-10-20T15:48:42.202Z,4.45
2022-10-20T15:54:57.068Z,5.82
2022-10-20T16:00:53.367Z,5.20
2022-10-20T16:03:43.277Z,5.15
2022-10-20T16:06:30.719Z,5.43
2022-10-20T16:09:19.130Z,5.50
2022-10-20T16:12:09.554Z,4.95
2022-10-20T16:15:00.053Z,5.55
2022-10-20T16:20:35.372Z,5.45
2022-10-20T16:23:23.348Z,4.50
2022-10-20T16:26:12.195Z,6.53
2022-10-20T16:29:00.109Z,6.03
2022-10-20T16:31:48.888Z,6.03
2022-10-20T16:34:36.372Z,6.03
2022-10-20T16:37:24.193Z,5.55
2022-10-20T16:40:12.207Z,6.05
2022-10-20T16:43:01.267Z,7.85
2022-10-20T16:45:48.683Z,6.22
2022-10-20T16:48:37.813Z,5.95
2022-10-20T16:51:25.473Z,5.88
2022-10-20T16:54:13.286Z,6.07
2022-10-20T16:57:00.660Z,5.88
2022-10-20T16:59:51.284Z,6.35
2022-10-20T17:02:38.756Z,6.30
2022-10-20T17:05:27.281Z,5.95
2022-10-20T17:08:15.204Z,6.60
2022-10-20T17:11:04.348Z,6.03
2022-10-20T17:13:51.904Z,6.22
2022-10-20T17:16:40.669Z,5.43
2022-10-20T17:19:28.651Z,6.20
2022-10-20T17:22:16.176Z,5.95
2022-10-20T17:25:04.217Z,6.10
2022-10-20T17:27:52.227Z,5.70
2022-10-20T17:30:43.972Z,5.95
2022-10-20T17:33:31.352Z,6.03
2022-10-20T17:36:20.112Z,6.00
2022-10-20T17:39:09.282Z,5.65
2022-10-20T17:41:57.297Z,6.05
2022-10-20T17:44:45.268Z,5.50
2022-10-20T17:47:32.523Z,6.50
2022-10-20T17:50:20.315Z,5.57
2022-10-20T17:53:08.122Z,5.35
2022-10-20T17:55:55.448Z,6.00
2022-10-20T17:58:44.119Z,6.60
2022-10-20T18:01:33.576Z,5.95
2022-10-20T18:04:21.412Z,6.05
2022-10-20T18:07:08.742Z,5.60
2022-10-20T18:09:56.215Z,6.07
2022-10-20T18:12:43.734Z,6.18
2022-10-20T18:15:31.139Z,6.00
2022-10-20T18:18:18.405Z,6.38
2022-10-20T18:21:06.404Z,5.32
2022-10-20T18:24:02.360Z,5.20
2022-10-20T18:26:49.886Z,6.43
2022-10-20T18:29:37.859Z,5.45
2022-10-20T18:32:25.233Z,6.00
2022-10-20T18:35:12.663Z,6.25
2022-10-20T18:38:00.546Z,6.15
2022-10-20T18:40:50.359Z,7.65
2022-10-20T18:43:38.319Z,7.93
2022-10-20T18:46:26.293Z,6.65
2022-10-20T18:49:14.785Z,6.53
2022-10-20T18:52:02.992Z,5.72
2022-10-20T18:54:50.518Z,5.72
2022-10-20T18:57:39.960Z,6.13
2022-10-20T19:00:28.184Z,6.57
2022-10-20T19:03:15.899Z,5.95
2022-10-20T19:06:03.368Z,6.25
2022-10-20T19:08:55.164Z,6.13
2022-10-20T19:11:42.768Z,6.05
2022-10-20T19:14:30.354Z,6.22
2022-10-20T19:17:17.915Z,5.40
2022-10-20T19:20:05.480Z,6.20
2022-10-20T19:22:52.839Z,6.70
2022-10-20T19:25:40.660Z,6.95
2022-10-20T19:28:28.185Z,6.70
2022-10-20T19:31:22.054Z,6.25
2022-10-20T19:34:11.612Z,6.30
2022-10-20T19:37:00.061Z,5.93
2022-10-20T19:39:47.736Z,6.75
2022-10-20T19:42:35.705Z,6.13
2022-10-20T19:45:23.237Z,6.45
2022-10-20T19:48:10.609Z,6.15
2022-10-20T19:50:57.958Z,6.60
2022-10-20T19:53:46.000Z,5.97
2022-10-20T19:56:33.984Z,6.70
2022-10-20T19:59:21.771Z,6.50
2022-10-20T20:02:10.880Z,6.70
2022-10-20T20:04:58.192Z,5.75
2022-10-20T20:07:45.596Z,6.35
2022-10-20T20:10:33.225Z,6.18
2022-10-20T20:13:20.556Z,5.80
2022-10-20T20:16:08.924Z,6.65
2022-10-20T20:18:57.812Z,6.20
2022-10-20T20:21:45.994Z,6.20
2022-10-20T20:24:33.664Z,6.15
2022-10-20T20:27:21.197Z,6.55
2022-10-20T20:30:08.882Z,6.00
2022-10-20T20:32:56.315Z,6.03
2022-10-20T20:35:44.086Z,5.88
2022-10-20T20:38:32.431Z,6.88
2022-10-20T20:41:20.892Z,6.38
2022-10-20T20:44:08.854Z,6.05
2022-10-20T20:46:56.142Z,5.90
2022-10-20T20:49:44.148Z,6.78
2022-10-20T20:52:32.274Z,6.60
2022-10-20T20:55:19.550Z,6.13
2022-10-20T20:58:07.323Z,6.57
2022-10-20T21:01:02.122Z,6.55
2022-10-20T21:03:54.514Z,6.30
2022-10-20T21:07:01.086Z,6.05
2022-10-20T21:09:49.538Z,6.38
2022-10-20T21:12:37.615Z,5.73
2022-10-20T21:15:25.741Z,5.82
2022-10-20T21:18:13.164Z,6.68
2022-10-20T21:21:07.007Z,7.82
2022-10-20T21:23:54.594Z,6.53
2022-10-20T21:26:41.910Z,6.53
2022-10-20T21:29:29.659Z,6.47
2022-10-20T21:32:18.850Z,6.15
2022-10-20T21:35:06.752Z,6.88
2022-10-20T21:37:54.587Z,6.88
2022-10-20T21:40:41.832Z,6.10
2022-10-20T21:43:30.038Z,7.47
2022-10-20T21:46:20.253Z,6.93
2022-10-20T21:49:09.099Z,6.23
2022-10-20T21:51:57.965Z,6.67
2022-10-20T21:54:45.280Z,6.83
2022-10-20T21:57:33.027Z,6.93
2022-10-20T22:00:23.297Z,6.10
2022-10-20T22:03:11.748Z,6.20
2022-10-20T22:05:59.603Z,6.55
2022-10-20T22:08:48.410Z,7.15
2022-10-20T22:11:37.691Z,6.73
2022-10-20T22:14:25.559Z,7.00
2022-10-20T22:17:14.237Z,6.22
